createdAt,value
2023-07-24T00:00:35.050Z,18.83
2023-07-24T00:05:37.204Z,18.76
2023-07-24T00:10:40.928Z,18.72
2023-07-24T00:15:42.886Z,18.65
2023-07-24T00:20:45.017Z,18.57
2023-07-24T00:25:48.592Z,18.54
2023-07-24T00:30:50.786Z,18.46
2023-07-24T00:35:56.633Z,18.44
2023-07-24T00:41:00.106Z,18.43
2023-07-24T00:46:03.863Z,18.35
2023-07-24T00:51:06.885Z,18.33
2023-07-24T00:56:11.141Z,18.20
2023-07-24T01:01:12.930Z,18.08
2023-07-24T01:06:14.776Z,18.08
2023-07-24T01:11:21.395Z,18.13
2023-07-24T01:16:27.217Z,18.16
2023-07-24T01:21:39.510Z,18.19
2023-07-24T01:26:43.488Z,18.21
2023-07-24T01:31:45.678Z,18.27
2023-07-24T01:36:49.997Z,18.33
2023-07-24T01:41:53.651Z,18.36
2023-07-24T01:46:55.847Z,18.19
2023-07-24T01:51:57.710Z,18.27
2023-07-24T01:57:01.291Z,18.37
2023-07-24T02:02:03.612Z,18.40
2023-07-24T02:07:05.780Z,18.54
2023-07-24T02:12:09.521Z,18.60
2023-07-24T02:17:11.517Z,18.76
2023-07-24T02:22:13.958Z,18.79
2023-07-24T02:27:26.385Z,18.81
2023-07-24T02:32:28.639Z,18.88
2023-07-24T02:37:30.873Z,18.96
2023-07-24T02:42:34.400Z,19.09
2023-07-24T02:47:36.579Z,19.31
2023-07-24T02:52:38.807Z,19.38
2023-07-24T02:57:41.928Z,19.45
2023-07-24T03:02:44.215Z,19.50
2023-07-24T03:07:46.049Z,19.56
2023-07-24T03:12:49.503Z,19.61
2023-07-24T03:17:51.526Z,19.61
2023-07-24T03:22:53.414Z,19.67
2023-07-24T03:27:56.872Z,19.67
2023-07-24T03:32:59.239Z,19.73
2023-07-24T03:38:01.236Z,19.73
2023-07-24T03:43:04.362Z,19.79
2023-07-24T03:48:06.827Z,19.85
2023-07-24T03:53:09.053Z,19.93
2023-07-24T03:58:12.375Z,20.01
2023-07-24T04:03:15.121Z,20.11
2023-07-24T04:08:17.235Z,20.14
2023-07-24T04:13:20.855Z,20.18
2023-07-24T04:18:22.876Z,20.26
2023-07-24T04:23:24.638Z,20.43
2023-07-24T04:28:27.728Z,20.70
2023-07-24T04:33:29.606Z,20.72
2023-07-24T04:38:33.141Z,20.86
2023-07-24T04:43:36.608Z,21.06
2023-07-24T04:48:38.357Z,21.16
2023-07-24T04:53:40.509Z,21.27
2023-07-24T04:58:43.886Z,21.17
2023-07-24T05:03:45.734Z,21.16
2023-07-24T05:08:47.566Z,21.36
2023-07-24T05:13:50.778Z,21.53
2023-07-24T05:18:52.948Z,22.10
2023-07-24T05:23:54.759Z,22.73
2023-07-24T05:28:58.474Z,24.24
2023-07-24T05:34:00.199Z,24.58
2023-07-24T05:39:02.370Z,26.53
2023-07-24T05:44:05.827Z,26.46
2023-07-24T05:49:08.010Z,27.62
2023-07-24T05:54:09.911Z,25.80
2023-07-24T05:59:13.420Z,24.18
2023-07-24T06:04:15.281Z,26.64
2023-07-24T06:09:17.099Z,27.08
2023-07-24T06:14:20.887Z,28.07
2023-07-24T06:19:23.317Z,30.26
2023-07-24T06:24:25.471Z,29.14
2023-07-24T06:29:28.945Z,29.54
2023-07-24T06:34:31.124Z,29.25
2023-07-24T06:39:32.876Z,29.12
2023-07-24T06:44:36.597Z,27.54
2023-07-24T06:49:38.814Z,26.66
2023-07-24T06:54:40.961Z,27.08
2023-07-24T06:59:44.459Z,28.14
2023-07-24T07:04:46.614Z,30.51
2023-07-24T07:09:48.767Z,28.74
2023-07-24T07:14:52.561Z,28.00
2023-07-24T07:19:54.877Z,28.76
2023-07-24T07:24:56.837Z,30.08
2023-07-24T07:30:00.457Z,30.13
2023-07-24T07:35:02.481Z,29.66
2023-07-24T07:40:05.492Z,29.34
2023-07-24T07:45:10.092Z,27.73
2023-07-24T07:50:11.869Z,28.66
2023-07-24T07:55:14.219Z,29.12
2023-07-24T08:00:18.445Z,28.01
2023-07-24T08:05:21.324Z,28.07
2023-07-24T08:10:23.512Z,28.19
2023-07-24T08:15:27.178Z,27.06
2023-07-24T08:20:29.864Z,26.55
2023-07-24T08:25:32.273Z,26.34
2023-07-24T08:30:36.058Z,26.34
2023-07-24T08:35:37.980Z,27.27
2023-07-24T08:40:40.224Z,28.38
2023-07-24T08:45:43.824Z,28.73
2023-07-24T08:50:48.176Z,28.75
2023-07-24T08:55:52.808Z,29.16
2023-07-24T09:00:57.866Z,30.05
2023-07-24T09:06:00.156Z,29.15
2023-07-24T09:11:03.329Z,30.04
2023-07-24T09:16:07.458Z,30.47
2023-07-24T09:21:11.436Z,29.09
2023-07-24T09:26:13.766Z,29.53
2023-07-24T09:31:17.534Z,28.80
2023-07-24T09:36:19.710Z,30.11
2023-07-24T09:41:29.084Z,32.46
2023-07-24T09:46:33.408Z,32.80
2023-07-24T09:51:37.021Z,33.32
2023-07-24T09:56:50.495Z,31.65
2023-07-24T10:01:57.249Z,30.74
2023-07-24T10:06:59.476Z,32.58
2023-07-24T10:12:02.811Z,29.63
2023-07-24T10:17:06.820Z,32.04
2023-07-24T10:22:08.851Z,32.12
2023-07-24T10:27:11.159Z,31.99
2023-07-24T10:32:20.953Z,30.85
2023-07-24T10:37:32.902Z,29.83
2023-07-24T10:42:35.463Z,29.87
2023-07-24T10:47:38.996Z,30.28
2023-07-24T10:52:41.203Z,29.77
2023-07-24T10:57:43.167Z,30.36
2023-07-24T11:02:46.574Z,29.75
2023-07-24T11:07:48.920Z,29.87
2023-07-24T11:12:51.316Z,29.04
2023-07-24T11:17:55.332Z,29.74
2023-07-24T11:22:59.190Z,30.13
2023-07-24T11:28:01.470Z,31.70
2023-07-24T11:33:07.656Z,30.37
2023-07-24T11:38:10.781Z,29.36
2023-07-24T11:43:17.155Z,30.66
2023-07-24T11:48:21.709Z,30.19
2023-07-24T11:53:26.093Z,30.43
2023-07-24T11:58:28.946Z,29.32
2023-07-24T12:03:32.681Z,29.66
2023-07-24T12:08:36.802Z,30.26
2023-07-24T12:13:39.104Z,29.25
2023-07-24T12:18:42.757Z,28.38
2023-07-24T12:23:45.250Z,28.22
2023-07-24T12:28:47.339Z,29.00
2023-07-24T12:33:50.855Z,28.07
2023-07-24T12:38:53.073Z,26.62
2023-07-24T12:43:55.207Z,25.47
2023-07-24T12:48:58.833Z,24.56
2023-07-24T12:54:11.758Z,25.56
2023-07-24T12:59:23.643Z,25.81
2023-07-24T13:04:27.135Z,25.70
2023-07-24T13:09:29.398Z,25.51
2023-07-24T13:14:31.258Z,26.58
2023-07-24T13:19:34.394Z,26.98
2023-07-24T13:24:37.602Z,27.46
2023-07-24T13:29:39.405Z,27.45
2023-07-24T13:34:42.920Z,27.67
2023-07-24T13:39:45.386Z,27.33
2023-07-24T13:44:47.848Z,26.73
2023-07-24T13:49:51.454Z,26.35
2023-07-24T13:54:53.186Z,26.17
2023-07-24T13:59:55.475Z,26.31
2023-07-24T14:04:59.062Z,26.26
2023-07-24T14:10:01.223Z,26.00
2023-07-24T14:15:03.663Z,26.11
2023-07-24T14:20:08.780Z,25.74
2023-07-24T14:25:11.192Z,25.48
2023-07-24T14:30:13.381Z,24.73
2023-07-24T14:35:16.567Z,24.64
2023-07-24T14:40:19.081Z,24.63
2023-07-24T14:45:21.368Z,24.74
2023-07-24T14:50:24.869Z,24.92
2023-07-24T14:55:26.813Z,25.13
2023-07-24T15:00:28.740Z,24.98
2023-07-24T15:05:32.409Z,25.11
2023-07-24T15:10:34.490Z,25.09
2023-07-24T15:15:37.269Z,25.51
2023-07-24T15:20:42.337Z,26.38
2023-07-24T15:25:44.592Z,26.91
2023-07-24T15:30:46.708Z,27.12
2023-07-24T15:35:50.815Z,28.07
2023-07-24T15:40:52.619Z,28.03
2023-07-24T15:45:54.637Z,28.09
2023-07-24T15:50:58.185Z,28.00
2023-07-24T15:56:00.573Z,27.43
2023-07-24T16:01:02.953Z,27.37
2023-07-24T16:06:06.116Z,28.00
2023-07-24T16:11:08.267Z,28.17
2023-07-24T16:16:10.649Z,28.30
2023-07-24T16:21:13.782Z,27.68
2023-07-24T16:26:16.218Z,27.72
2023-07-24T16:31:18.370Z,27.39
2023-07-24T16:36:22.059Z,27.69
2023-07-24T16:41:23.950Z,27.60
2023-07-24T16:46:26.356Z,27.41
2023-07-24T16:51:30.289Z,27.04
2023-07-24T16:56:32.701Z,26.56
2023-07-24T17:01:35.300Z,26.27
2023-07-24T17:06:38.945Z,26.09
2023-07-24T17:11:41.152Z,25.84
2023-07-24T17:16:42.891Z,21.74
2023-07-24T17:21:45.922Z,19.07
2023-07-24T17:26:48.170Z,18.41
2023-07-24T17:31:50.024Z,18.41
2023-07-24T17:36:53.058Z,18.39
2023-07-24T17:41:55.171Z,18.40
2023-07-24T17:46:57.308Z,18.38
2023-07-24T17:52:00.794Z,18.41
2023-07-24T17:57:02.588Z,18.23
2023-07-24T18:02:05.031Z,17.95
2023-07-24T18:07:08.529Z,18.09
2023-07-24T18:12:10.248Z,17.97
2023-07-24T18:17:12.040Z,18.13
2023-07-24T18:22:15.692Z,18.11
2023-07-24T18:27:17.614Z,18.28
2023-07-24T18:32:19.350Z,18.31
2023-07-24T18:37:22.458Z,18.81
2023-07-24T18:42:24.243Z,18.87
2023-07-24T18:47:26.064Z,18.96
2023-07-24T18:52:29.310Z,18.72
2023-07-24T18:57:31.090Z,18.54
2023-07-24T19:02:32.929Z,18.37
2023-07-24T19:07:36.479Z,18.38
2023-07-24T19:12:38.760Z,18.24
2023-07-24T19:17:40.881Z,18.16
2023-07-24T19:22:43.999Z,18.17
2023-07-24T19:27:45.961Z,18.08
2023-07-24T19:32:47.983Z,18.04
2023-07-24T19:37:51.137Z,17.97
2023-07-24T19:42:53.213Z,17.88
2023-07-24T19:47:55.464Z,17.78
2023-07-24T19:52:58.949Z,17.56
2023-07-24T19:58:00.888Z,17.55
2023-07-24T20:03:02.679Z,17.54
2023-07-24T20:08:06.139Z,17.46
2023-07-24T20:13:07.836Z,17.41
2023-07-24T20:18:10.043Z,17.31
2023-07-24T20:23:14.185Z,17.32
2023-07-24T20:28:16.231Z,17.24
2023-07-24T20:33:18.367Z,17.24
2023-07-24T20:38:28.516Z,17.21
2023-07-24T20:43:30.702Z,17.16
2023-07-24T20:48:32.557Z,17.00
2023-07-24T20:53:36.440Z,17.03
2023-07-24T20:58:38.701Z,16.89
2023-07-24T21:03:40.821Z,16.77
2023-07-24T21:08:44.008Z,16.78
2023-07-24T21:13:46.414Z,16.72
2023-07-24T21:18:48.455Z,16.88
2023-07-24T21:23:52.044Z,16.92
2023-07-24T21:28:54.349Z,16.98
2023-07-24T21:33:56.057Z,16.95
2023-07-24T21:38:59.638Z,16.91
2023-07-24T21:44:01.647Z,16.79
2023-07-24T21:49:03.951Z,16.61
2023-07-24T21:54:07.374Z,16.55
2023-07-24T21:59:09.685Z,16.56
2023-07-24T22:04:11.920Z,16.51
2023-07-24T22:09:15.072Z,16.48
2023-07-24T22:14:17.107Z,16.40
2023-07-24T22:19:18.938Z,16.30
2023-07-24T22:24:22.596Z,16.21
2023-07-24T22:29:24.562Z,16.08
2023-07-24T22:34:26.691Z,16.07
2023-07-24T22:39:30.200Z,16.03
2023-07-24T22:44:32.422Z,15.81
2023-07-24T22:49:34.609Z,15.85
2023-07-24T22:54:38.152Z,15.87
2023-07-24T22:59:39.922Z,15.74
2023-07-24T23:04:41.663Z,15.75
2023-07-24T23:09:44.875Z,15.65
2023-07-24T23:14:46.617Z,15.53
2023-07-24T23:19:48.768Z,15.50
2023-07-24T23:24:52.561Z,15.52
2023-07-24T23:29:54.897Z,15.47
2023-07-24T23:34:57.022Z,15.51
2023-07-24T23:40:00.472Z,15.51
2023-07-24T23:45:02.622Z,15.53
2023-07-24T23:50:05.389Z,15.48
2023-07-24T23:55:09.400Z,15.54
